Aviation Digital Data Service (ADDS)

Output produced by METARs form (0220 UTC 20 September 2020)
found at http://www.aviationweather.gov/metar/data/
 
Forecast for: ORER (ERBIL INTL , IQ)
Text: TAF ORER 192300Z 2000/2024 VRB03KT CAVOK
Forecast period: 0000 to 0600 UTC 20 September 2020
Forecast type: FROM: standard forecast or significant change
Winds: variable direction winds at 3 MPH (3 knots; 1.5 m/s)
Visibility: 6 or more miles (10+ km)
Ceiling: unknown
Clouds: missing
Weather: NSW  (no significant weather)
Text: BECMG 2006/2008 22004KT
Forecast period: 0600 UTC 20 September 2020 to 0000 UTC 21 September 2020
Forecast type: BECOMING: Conditions expected to become as follows by 0800 UTC 20 September 2020
Winds: from the SW (220 degrees) at 5 MPH (4 knots; 2.1 m/s)
Visibility: 6 or more miles (10+ km)
Ceiling: unknown
Clouds: missing
Weather: NSW  (no significant weather)